Terminal Aerodrome Forecast
Issued by NWS

Current Version | Previous Version | Text Only | Print | Product List | Glossary On
Versions: 1 2 3 4 5 6 7 8 9 10 11 12 13 14 15
000
FTUS42 TJSJ 211700
TAFISX
TAF
TISX 211720Z 2118/2218 07013KT P6SM VCSH SCT022 BKN050
      TEMPO 2119/2121 06012G18KT SHRA SCT022 BKN040
     FM212300 07012KT P6SM VCTS SCT020CB BKN040
     FM221400 06013G21KT P6SM VCSH SCT025 BKN050=

USA.gov is the U.S. government's official web portal to all federal, state and local government web resources and services.